createdAt,value
2022-09-30T00:02:56.938Z,17.00
2022-09-30T00:07:55.684Z,14.65
2022-09-30T00:12:54.803Z,11.32
2022-09-30T00:17:53.471Z,11.75
2022-09-30T00:22:53.539Z,9.25
2022-09-30T00:27:52.315Z,8.57
2022-09-30T00:32:51.015Z,6.07
2022-09-30T00:37:49.742Z,6.65
2022-09-30T00:42:50.433Z,4.68
2022-09-30T00:47:53.854Z,6.45
2022-09-30T00:52:57.096Z,6.43
2022-09-30T00:57:58.383Z,6.97
2022-09-30T01:02:57.438Z,9.43
2022-09-30T01:07:59.121Z,4.00
2022-09-30T01:13:00.142Z,7.32
2022-09-30T01:18:07.917Z,7.18
2022-09-30T01:23:24.980Z,5.47
2022-09-30T01:28:56.595Z,5.40
2022-09-30T01:34:03.865Z,7.43
2022-09-30T01:39:16.772Z,3.50
2022-09-30T01:44:20.400Z,8.45
2022-09-30T01:49:31.138Z,6.43
2022-09-30T01:54:35.566Z,4.20
2022-09-30T01:59:38.613Z,4.75
2022-09-30T02:04:43.734Z,7.80
2022-09-30T02:09:49.377Z,7.07
2022-09-30T02:14:54.527Z,6.38
2022-09-30T02:20:00.611Z,9.32
2022-09-30T02:25:03.159Z,6.80
2022-09-30T02:30:04.194Z,4.30
2022-09-30T02:35:08.862Z,9.90
2022-09-30T02:40:13.161Z,4.57
2022-09-30T02:45:16.498Z,3.30
2022-09-30T02:50:21.690Z,5.40
2022-09-30T02:55:28.163Z,3.53
2022-09-30T03:00:27.992Z,5.70
2022-09-30T03:05:28.945Z,4.50
2022-09-30T03:10:30.548Z,4.55
2022-09-30T03:15:42.356Z,5.63
2022-09-30T03:20:53.823Z,5.53
2022-09-30T03:26:00.473Z,8.87
2022-09-30T03:31:07.135Z,9.63
2022-09-30T03:36:15.219Z,7.10
2022-09-30T03:41:20.540Z,11.70
2022-09-30T03:46:26.181Z,11.60
2022-09-30T03:51:26.575Z,11.52
2022-09-30T03:56:29.754Z,11.82
2022-09-30T04:01:29.418Z,13.73
2022-09-30T04:06:29.639Z,13.35
2022-09-30T04:11:28.434Z,12.00
2022-09-30T04:16:27.271Z,12.10
2022-09-30T04:21:28.824Z,10.57
2022-09-30T04:26:29.024Z,23.17
2022-09-30T04:31:27.824Z,19.45
2022-09-30T04:36:26.611Z,11.20
2022-09-30T04:41:25.966Z,11.65
2022-09-30T04:46:26.171Z,10.90
2022-09-30T04:51:24.882Z,13.38
2022-09-30T04:56:24.552Z,13.63
2022-09-30T05:01:23.417Z,16.65
2022-09-30T05:06:23.583Z,15.23
2022-09-30T05:11:23.158Z,21.13
2022-09-30T05:16:21.980Z,14.02
2022-09-30T05:21:21.285Z,11.55
2022-09-30T05:26:21.354Z,9.43
2022-09-30T05:31:21.017Z,6.70
2022-09-30T05:36:19.847Z,7.13
2022-09-30T05:41:20.511Z,10.35
2022-09-30T05:46:21.272Z,15.77
2022-09-30T05:51:20.208Z,24.48
2022-09-30T05:56:18.970Z,19.23
2022-09-30T06:01:18.197Z,18.17
2022-09-30T06:06:20.175Z,16.63
2022-09-30T06:11:20.969Z,11.07
2022-09-30T06:16:20.286Z,31.20
2022-09-30T06:21:22.946Z,15.35
2022-09-30T06:26:24.653Z,14.23
2022-09-30T06:31:23.898Z,15.80
2022-09-30T06:36:24.043Z,13.43
2022-09-30T06:41:27.688Z,16.70
2022-09-30T06:46:31.072Z,19.52
2022-09-30T06:51:33.270Z,15.10
2022-09-30T06:56:32.741Z,17.27
2022-09-30T07:01:31.478Z,17.00
2022-09-30T07:06:31.307Z,9.65
2022-09-30T07:11:31.412Z,13.35
2022-09-30T07:16:31.761Z,11.40
2022-09-30T07:21:32.059Z,12.23
2022-09-30T07:26:32.296Z,15.13
2022-09-30T07:31:34.008Z,6.57
2022-09-30T07:36:34.482Z,11.38
2022-09-30T07:41:36.632Z,14.05
2022-09-30T07:46:39.235Z,10.35
2022-09-30T07:51:41.028Z,9.73
2022-09-30T07:57:10.285Z,8.18
2022-09-30T08:02:03.113Z,10.07
2022-09-30T08:07:03.587Z,8.18
2022-09-30T08:12:07.411Z,7.43
2022-09-30T08:17:06.364Z,8.32
2022-09-30T08:22:06.622Z,9.90
2022-09-30T08:27:07.041Z,6.80
2022-09-30T08:32:06.000Z,13.80
2022-09-30T08:37:09.259Z,10.88
2022-09-30T08:42:36.602Z,7.57
2022-09-30T08:47:48.177Z,5.72
2022-09-30T08:52:50.209Z,7.50
2022-09-30T08:57:51.447Z,10.25
2022-09-30T09:02:55.936Z,7.97
2022-09-30T09:08:05.152Z,6.97
2022-09-30T09:13:13.575Z,7.30
2022-09-30T09:18:47.087Z,8.73
2022-09-30T09:23:46.420Z,9.13
2022-09-30T09:28:58.173Z,8.57
2022-09-30T09:34:01.946Z,5.28
2022-09-30T09:39:17.684Z,6.32
2022-09-30T09:44:26.989Z,5.60
2022-09-30T09:49:32.468Z,7.68
2022-09-30T09:54:34.182Z,7.47
2022-09-30T09:59:34.291Z,6.68
2022-09-30T10:04:33.330Z,3.95
2022-09-30T10:09:34.790Z,6.00
2022-09-30T10:14:36.700Z,4.32
2022-09-30T10:19:36.558Z,5.63
2022-09-30T10:24:36.735Z,6.40
2022-09-30T10:29:37.500Z,4.07
2022-09-30T10:34:39.844Z,5.93
2022-09-30T10:39:40.571Z,3.83
2022-09-30T10:44:47.067Z,6.07
2022-09-30T10:49:49.769Z,3.15
2022-09-30T10:54:51.254Z,4.82
2022-09-30T10:59:54.554Z,5.10
2022-09-30T11:05:03.869Z,4.13
2022-09-30T11:10:07.975Z,3.25
2022-09-30T11:15:17.539Z,4.80
2022-09-30T11:20:22.315Z,4.85
2022-09-30T11:25:28.959Z,16.65
2022-09-30T11:30:39.332Z,4.88
2022-09-30T11:35:47.393Z,4.40
2022-09-30T11:40:55.936Z,7.68
2022-09-30T11:46:18.066Z,15.68
2022-09-30T11:51:25.260Z,6.82
2022-09-30T11:56:37.702Z,4.07
2022-09-30T12:01:44.024Z,6.40
2022-09-30T12:06:50.230Z,3.80
2022-09-30T12:11:55.714Z,5.18
2022-09-30T12:16:57.907Z,3.83
2022-09-30T12:22:02.638Z,3.35
2022-09-30T12:27:02.323Z,4.63
2022-09-30T12:32:21.618Z,2.38
2022-09-30T12:37:35.779Z,3.25
2022-09-30T12:43:02.174Z,3.20
2022-09-30T12:48:08.006Z,5.78
2022-09-30T12:53:17.763Z,18.33
2022-09-30T12:58:26.186Z,3.95
2022-09-30T13:03:28.854Z,7.30
2022-09-30T13:08:50.593Z,6.95
2022-09-30T13:14:03.887Z,4.35
2022-09-30T13:19:04.180Z,2.63
2022-09-30T13:24:04.664Z,8.05
2022-09-30T13:29:38.263Z,5.40
2022-09-30T13:34:56.754Z,12.40
2022-09-30T13:39:58.015Z,4.63
2022-09-30T13:45:03.820Z,5.63
2022-09-30T13:50:14.319Z,4.20
2022-09-30T13:55:19.798Z,6.07
2022-09-30T14:00:21.540Z,6.88
2022-09-30T14:05:42.606Z,4.70
2022-09-30T14:10:58.817Z,6.00
2022-09-30T14:16:22.926Z,6.00
2022-09-30T14:21:35.263Z,5.95
2022-09-30T14:26:56.365Z,7.75
2022-09-30T14:32:12.977Z,7.05
2022-09-30T14:37:20.083Z,10.75
2022-09-30T14:42:25.438Z,6.88
2022-09-30T14:47:25.963Z,8.60
2022-09-30T14:52:38.398Z,9.90
2022-09-30T14:57:37.198Z,10.60
2022-09-30T15:02:36.263Z,9.60
2022-09-30T15:07:36.535Z,9.60
2022-09-30T15:12:37.581Z,10.52
2022-09-30T15:17:38.896Z,7.78
2022-09-30T15:22:47.777Z,8.32
2022-09-30T15:27:46.998Z,14.88
2022-09-30T15:32:50.277Z,9.73
2022-09-30T15:37:53.083Z,8.98
2022-09-30T15:42:59.691Z,8.93
2022-09-30T15:48:02.451Z,7.72
2022-09-30T15:53:08.936Z,7.30
2022-09-30T15:58:36.548Z,10.27
2022-09-30T16:03:38.746Z,5.10
2022-09-30T16:08:45.488Z,5.07
2022-09-30T16:13:45.933Z,7.80
2022-09-30T16:18:54.982Z,9.50
2022-09-30T16:23:55.633Z,6.07
2022-09-30T16:28:56.020Z,13.35
2022-09-30T16:38:54.865Z,13.40
2022-09-30T16:43:53.703Z,23.95
2022-09-30T16:48:52.781Z,8.70
2022-09-30T16:53:51.934Z,9.63
2022-09-30T16:58:52.568Z,12.70
2022-09-30T17:03:54.346Z,12.57
2022-09-30T17:08:53.655Z,17.73
2022-09-30T17:13:54.012Z,21.52
2022-09-30T17:18:53.551Z,13.18
2022-09-30T17:23:52.681Z,12.82
2022-09-30T17:28:51.557Z,16.27
2022-09-30T17:33:52.004Z,13.77
2022-09-30T17:38:56.549Z,11.98
2022-09-30T17:43:55.521Z,12.30
2022-09-30T17:48:58.062Z,8.45
2022-09-30T17:53:57.102Z,17.42
2022-09-30T17:58:58.494Z,13.65
2022-09-30T18:04:01.334Z,13.43
2022-09-30T18:09:00.771Z,17.17
2022-09-30T18:14:02.036Z,28.48
2022-09-30T18:24:02.138Z,17.23
2022-09-30T18:29:01.204Z,22.83
2022-09-30T18:34:03.050Z,33.97
2022-09-30T18:39:02.823Z,20.33
2022-09-30T18:44:02.585Z,16.95
2022-09-30T18:49:03.402Z,15.25
2022-09-30T18:54:02.663Z,21.73
2022-09-30T18:59:04.211Z,16.85
2022-09-30T19:04:07.290Z,28.60
2022-09-30T19:09:08.092Z,17.10
2022-09-30T19:14:07.145Z,14.65
2022-09-30T19:19:08.302Z,14.60
2022-09-30T19:24:11.447Z,13.82
2022-09-30T19:29:11.534Z,12.15
2022-09-30T19:34:15.582Z,13.52
2022-09-30T19:39:18.854Z,14.35
2022-09-30T19:44:19.265Z,15.27
2022-09-30T19:49:21.755Z,11.23
2022-09-30T19:54:33.845Z,11.35
2022-09-30T19:59:37.103Z,12.43
2022-09-30T20:04:41.531Z,13.90
2022-09-30T20:09:42.859Z,16.42
2022-09-30T20:14:59.088Z,14.20
2022-09-30T20:20:27.564Z,20.17
2022-09-30T20:25:38.497Z,19.98
2022-09-30T20:30:51.495Z,12.77
2022-09-30T20:35:55.734Z,14.98
2022-09-30T20:40:57.241Z,13.10
2022-09-30T20:46:00.356Z,12.63
2022-09-30T20:51:01.076Z,11.38
2022-09-30T20:56:02.050Z,7.97
2022-09-30T21:01:03.700Z,9.17
2022-09-30T21:11:04.062Z,7.95
2022-09-30T21:16:05.288Z,9.65
2022-09-30T21:21:06.124Z,7.18
2022-09-30T21:26:07.240Z,7.78
2022-09-30T21:31:08.072Z,7.83
2022-09-30T21:36:08.495Z,9.53
2022-09-30T21:41:08.666Z,7.97
2022-09-30T21:46:09.313Z,6.10
2022-09-30T21:51:10.337Z,5.85
2022-09-30T21:56:11.726Z,7.45
2022-09-30T22:01:11.800Z,8.35
2022-09-30T22:06:13.132Z,4.70
2022-09-30T22:11:17.703Z,7.88
2022-09-30T22:16:17.018Z,6.05
2022-09-30T22:21:19.316Z,7.85
2022-09-30T22:26:21.477Z,5.32
2022-09-30T22:31:22.270Z,7.57
2022-09-30T22:36:39.652Z,5.72
2022-09-30T22:41:39.406Z,7.00
2022-09-30T22:46:39.484Z,5.53
2022-09-30T22:51:39.715Z,7.93
2022-09-30T22:56:38.569Z,4.50
2022-09-30T23:01:37.575Z,5.35
2022-09-30T23:06:36.776Z,6.53
2022-09-30T23:11:37.018Z,4.20
2022-09-30T23:16:35.982Z,5.28
2022-09-30T23:21:35.498Z,4.13
2022-09-30T23:26:34.591Z,4.60
2022-09-30T23:31:35.816Z,3.53
2022-09-30T23:36:36.985Z,5.93
2022-09-30T23:41:36.496Z,3.20
2022-09-30T23:46:37.117Z,5.60
2022-09-30T23:51:36.199Z,5.53
2022-09-30T23:56:35.333Z,3.42
